sensor_id;sensor_type;location;lat;lon;timestamp;P1;durP1;ratioP1;P2;durP2;ratioP2
31043;SDS011;17710;52.520;13.352;2023-04-01T00:00:47;2.92;;;1.20;;
31043;SDS011;17710;52.520;13.352;2023-04-01T00:03:13;2.55;;;1.20;;
31043;SDS011;17710;52.520;13.352;2023-04-01T00:05:40;3.30;;;1.95;;
31043;SDS011;17710;52.520;13.352;2023-04-01T00:08:07;3.63;;;1.20;;
31043;SDS011;17710;52.520;13.352;2023-04-01T00:10:34;2.33;;;1.50;;
31043;SDS011;17710;52.520;13.352;2023-04-01T00:13:00;1.42;;;1.15;;
31043;SDS011;17710;52.520;13.352;2023-04-01T00:15:27;4.75;;;1.33;;
31043;SDS011;17710;52.520;13.352;2023-04-01T00:17:53;4.95;;;1.55;;
31043;SDS011;17710;52.520;13.352;2023-04-01T00:20:20;1.70;;;1.17;;
31043;SDS011;17710;52.520;13.352;2023-04-01T00:22:46;1.65;;;1.30;;
31043;SDS011;17710;52.520;13.352;2023-04-01T00:25:14;3.55;;;1.58;;
31043;SDS011;17710;52.520;13.352;2023-04-01T00:27:40;3.08;;;1.20;;
31043;SDS011;17710;52.520;13.352;2023-04-01T00:30:07;3.22;;;1.25;;
31043;SDS011;17710;52.520;13.352;2023-04-01T00:32:35;3.05;;;1.35;;
31043;SDS011;17710;52.520;13.352;2023-04-01T00:35:02;2.33;;;1.10;;
31043;SDS011;17710;52.520;13.352;2023-04-01T00:37:30;6.93;;;1.30;;
31043;SDS011;17710;52.520;13.352;2023-04-01T00:39:56;3.08;;;1.30;;
31043;SDS011;17710;52.520;13.352;2023-04-01T00:42:24;2.95;;;1.40;;
31043;SDS011;17710;52.520;13.352;2023-04-01T00:44:51;5.88;;;1.40;;
31043;SDS011;17710;52.520;13.352;2023-04-01T00:47:19;7.45;;;1.70;;
31043;SDS011;17710;52.520;13.352;2023-04-01T00:49:48;3.63;;;1.45;;
31043;SDS011;17710;52.520;13.352;2023-04-01T00:52:17;3.17;;;1.05;;
31043;SDS011;17710;52.520;13.352;2023-04-01T00:54:47;2.65;;;1.27;;
31043;SDS011;17710;52.520;13.352;2023-04-01T00:57:18;5.03;;;1.77;;
31043;SDS011;17710;52.520;13.352;2023-04-01T00:59:52;3.40;;;1.50;;
31043;SDS011;17710;52.520;13.352;2023-04-01T01:02:20;5.80;;;1.70;;
31043;SDS011;17710;52.520;13.352;2023-04-01T01:04:47;3.15;;;1.20;;
31043;SDS011;17710;52.520;13.352;2023-04-01T01:07:16;4.55;;;1.85;;
31043;SDS011;17710;52.520;13.352;2023-04-01T01:09:52;4.20;;;1.30;;
31043;SDS011;17710;52.520;13.352;2023-04-01T01:12:28;6.60;;;2.72;;
31043;SDS011;17710;52.520;13.352;2023-04-01T01:15:00;4.53;;;1.98;;
31043;SDS011;17710;52.520;13.352;2023-04-01T01:17:35;4.68;;;1.60;;
31043;SDS011;17710;52.520;13.352;2023-04-01T01:20:19;2.42;;;1.38;;
31043;SDS011;17710;52.520;13.352;2023-04-01T01:23:06;6.28;;;1.67;;
31043;SDS011;17710;52.520;13.352;2023-04-01T01:29:05;6.53;;;1.60;;
31043;SDS011;17710;52.520;13.352;2023-04-01T01:31:42;4.43;;;1.55;;
31043;SDS011;17710;52.520;13.352;2023-04-01T01:34:17;4.15;;;1.25;;
31043;SDS011;17710;52.520;13.352;2023-04-01T01:36:52;2.47;;;1.27;;
31043;SDS011;17710;52.520;13.352;2023-04-01T01:39:22;2.28;;;0.93;;
31043;SDS011;17710;52.520;13.352;2023-04-01T01:41:52;2.63;;;1.60;;
31043;SDS011;17710;52.520;13.352;2023-04-01T01:44:21;5.55;;;1.35;;
31043;SDS011;17710;52.520;13.352;2023-04-01T01:46:49;3.22;;;1.55;;
31043;SDS011;17710;52.520;13.352;2023-04-01T01:49:16;4.60;;;1.50;;
31043;SDS011;17710;52.520;13.352;2023-04-01T01:51:44;7.03;;;1.52;;
31043;SDS011;17710;52.520;13.352;2023-04-01T01:54:13;5.57;;;1.40;;
31043;SDS011;17710;52.520;13.352;2023-04-01T01:56:39;3.38;;;1.50;;
31043;SDS011;17710;52.520;13.352;2023-04-01T01:59:08;3.08;;;1.00;;
31043;SDS011;17710;52.520;13.352;2023-04-01T02:01:39;2.97;;;1.20;;
31043;SDS011;17710;52.520;13.352;2023-04-01T02:04:09;5.03;;;1.30;;
31043;SDS011;17710;52.520;13.352;2023-04-01T02:06:38;6.32;;;1.10;;
31043;SDS011;17710;52.520;13.352;2023-04-01T02:09:09;1.95;;;0.98;;
31043;SDS011;17710;52.520;13.352;2023-04-01T02:11:39;4.72;;;2.08;;
31043;SDS011;17710;52.520;13.352;2023-04-01T02:14:10;6.78;;;1.40;;
31043;SDS011;17710;52.520;13.352;2023-04-01T02:16:41;2.70;;;1.20;;
31043;SDS011;17710;52.520;13.352;2023-04-01T02:19:13;2.72;;;1.50;;
31043;SDS011;17710;52.520;13.352;2023-04-01T02:21:47;3.08;;;1.33;;
31043;SDS011;17710;52.520;13.352;2023-04-01T02:24:16;1.30;;;1.15;;
31043;SDS011;17710;52.520;13.352;2023-04-01T02:26:47;1.85;;;1.00;;
31043;SDS011;17710;52.520;13.352;2023-04-01T02:29:16;2.95;;;1.30;;
31043;SDS011;17710;52.520;13.352;2023-04-01T02:31:46;5.18;;;1.08;;
31043;SDS011;17710;52.520;13.352;2023-04-01T02:34:13;3.28;;;1.38;;
31043;SDS011;17710;52.520;13.352;2023-04-01T02:36:40;2.80;;;1.20;;
31043;SDS011;17710;52.520;13.352;2023-04-01T02:39:07;2.78;;;1.35;;
31043;SDS011;17710;52.520;13.352;2023-04-01T02:41:38;3.80;;;1.10;;
31043;SDS011;17710;52.520;13.352;2023-04-01T02:44:07;4.65;;;1.40;;
31043;SDS011;17710;52.520;13.352;2023-04-01T02:46:34;5.18;;;1.25;;
31043;SDS011;17710;52.520;13.352;2023-04-01T02:49:01;2.78;;;1.00;;
31043;SDS011;17710;52.520;13.352;2023-04-01T02:51:27;6.28;;;1.25;;
31043;SDS011;17710;52.520;13.352;2023-04-01T02:53:54;4.38;;;1.55;;
31043;SDS011;17710;52.520;13.352;2023-04-01T02:56:20;4.65;;;1.67;;
31043;SDS011;17710;52.520;13.352;2023-04-01T02:58:47;4.13;;;1.33;;
31043;SDS011;17710;52.520;13.352;2023-04-01T03:01:15;2.58;;;1.10;;
31043;SDS011;17710;52.520;13.352;2023-04-01T03:03:41;3.67;;;1.45;;
31043;SDS011;17710;52.520;13.352;2023-04-01T03:06:09;4.53;;;1.70;;
31043;SDS011;17710;52.520;13.352;2023-04-01T03:08:36;3.92;;;1.52;;
31043;SDS011;17710;52.520;13.352;2023-04-01T03:11:02;3.42;;;1.15;;
31043;SDS011;17710;52.520;13.352;2023-04-01T03:13:30;2.22;;;1.20;;
31043;SDS011;17710;52.520;13.352;2023-04-01T03:15:56;4.40;;;1.45;;
31043;SDS011;17710;52.520;13.352;2023-04-01T03:18:24;4.40;;;1.40;;
31043;SDS011;17710;52.520;13.352;2023-04-01T03:20:50;7.00;;;1.80;;
31043;SDS011;17710;52.520;13.352;2023-04-01T03:23:16;8.07;;;1.88;;
31043;SDS011;17710;52.520;13.352;2023-04-01T03:25:44;3.30;;;1.75;;
31043;SDS011;17710;52.520;13.352;2023-04-01T03:28:10;1.85;;;1.30;;
31043;SDS011;17710;52.520;13.352;2023-04-01T03:30:37;7.30;;;1.23;;
31043;SDS011;17710;52.520;13.352;2023-04-01T03:33:03;3.83;;;1.25;;
31043;SDS011;17710;52.520;13.352;2023-04-01T03:35:31;5.60;;;1.10;;
31043;SDS011;17710;52.520;13.352;2023-04-01T03:37:58;5.75;;;1.30;;
31043;SDS011;17710;52.520;13.352;2023-04-01T03:40:24;4.93;;;1.33;;
31043;SDS011;17710;52.520;13.352;2023-04-01T03:42:51;3.35;;;1.40;;
31043;SDS011;17710;52.520;13.352;2023-04-01T03:45:17;5.57;;;1.60;;
31043;SDS011;17710;52.520;13.352;2023-04-01T03:47:44;4.70;;;1.23;;
31043;SDS011;17710;52.520;13.352;2023-04-01T03:50:10;3.97;;;1.25;;
31043;SDS011;17710;52.520;13.352;2023-04-01T03:52:38;4.28;;;1.10;;
31043;SDS011;17710;52.520;13.352;2023-04-01T03:55:04;4.95;;;1.33;;
31043;SDS011;17710;52.520;13.352;2023-04-01T03:57:31;1.83;;;1.40;;
31043;SDS011;17710;52.520;13.352;2023-04-01T03:59:58;6.68;;;1.48;;
31043;SDS011;17710;52.520;13.352;2023-04-01T04:02:24;4.35;;;1.33;;
31043;SDS011;17710;52.520;13.352;2023-04-01T04:04:51;3.60;;;1.60;;
31043;SDS011;17710;52.520;13.352;2023-04-01T04:07:17;6.13;;;1.90;;
31043;SDS011;17710;52.520;13.352;2023-04-01T04:09:45;5.07;;;1.40;;
31043;SDS011;17710;52.520;13.352;2023-04-01T04:12:12;3.80;;;1.85;;
31043;SDS011;17710;52.520;13.352;2023-04-01T04:14:39;4.30;;;1.60;;
31043;SDS011;17710;52.520;13.352;2023-04-01T04:17:05;6.35;;;1.50;;
31043;SDS011;17710;52.520;13.352;2023-04-01T04:19:33;8.27;;;1.50;;
31043;SDS011;17710;52.520;13.352;2023-04-01T04:21:59;2.95;;;1.40;;
31043;SDS011;17710;52.520;13.352;2023-04-01T04:24:26;4.60;;;1.63;;
31043;SDS011;17710;52.520;13.352;2023-04-01T04:26:54;3.92;;;1.42;;
31043;SDS011;17710;52.520;13.352;2023-04-01T04:29:20;4.97;;;2.00;;
31043;SDS011;17710;52.520;13.352;2023-04-01T04:31:47;5.35;;;1.65;;
31043;SDS011;17710;52.520;13.352;2023-04-01T04:34:14;5.80;;;1.70;;
31043;SDS011;17710;52.520;13.352;2023-04-01T04:36:40;3.25;;;1.48;;
31043;SDS011;17710;52.520;13.352;2023-04-01T04:39:06;3.88;;;1.65;;
31043;SDS011;17710;52.520;13.352;2023-04-01T04:41:33;3.88;;;1.50;;
31043;SDS011;17710;52.520;13.352;2023-04-01T04:44:01;3.60;;;1.52;;
31043;SDS011;17710;52.520;13.352;2023-04-01T04:46:27;9.38;;;1.70;;
31043;SDS011;17710;52.520;13.352;2023-04-01T04:48:53;10.20;;;3.20;;
31043;SDS011;17710;52.520;13.352;2023-04-01T04:51:20;6.93;;;1.85;;
31043;SDS011;17710;52.520;13.352;2023-04-01T04:53:47;1.80;;;1.42;;
31043;SDS011;17710;52.520;13.352;2023-04-01T04:56:17;6.47;;;1.70;;
31043;SDS011;17710;52.520;13.352;2023-04-01T04:58:43;5.88;;;1.67;;
31043;SDS011;17710;52.520;13.352;2023-04-01T05:01:12;8.57;;;1.67;;
31043;SDS011;17710;52.520;13.352;2023-04-01T05:03:40;4.82;;;2.10;;
31043;SDS011;17710;52.520;13.352;2023-04-01T05:06:07;5.70;;;2.13;;
31043;SDS011;17710;52.520;13.352;2023-04-01T05:08:35;5.32;;;1.90;;
31043;SDS011;17710;52.520;13.352;2023-04-01T05:11:03;4.80;;;1.80;;
31043;SDS011;17710;52.520;13.352;2023-04-01T05:13:34;9.88;;;2.47;;
31043;SDS011;17710;52.520;13.352;2023-04-01T05:16:01;4.95;;;1.92;;
31043;SDS011;17710;52.520;13.352;2023-04-01T05:18:29;6.60;;;2.00;;
31043;SDS011;17710;52.520;13.352;2023-04-01T05:20:55;4.93;;;2.05;;
31043;SDS011;17710;52.520;13.352;2023-04-01T05:23:22;5.80;;;2.38;;
31043;SDS011;17710;52.520;13.352;2023-04-01T05:25:48;5.38;;;2.10;;
31043;SDS011;17710;52.520;13.352;2023-04-01T05:28:16;6.25;;;1.83;;
31043;SDS011;17710;52.520;13.352;2023-04-01T05:30:43;4.47;;;1.92;;
31043;SDS011;17710;52.520;13.352;2023-04-01T05:33:12;5.72;;;2.10;;
31043;SDS011;17710;52.520;13.352;2023-04-01T05:35:41;6.53;;;1.73;;
31043;SDS011;17710;52.520;13.352;2023-04-01T05:38:07;5.07;;;1.60;;
31043;SDS011;17710;52.520;13.352;2023-04-01T05:40:34;6.47;;;1.83;;
31043;SDS011;17710;52.520;13.352;2023-04-01T05:43:00;3.92;;;1.63;;
31043;SDS011;17710;52.520;13.352;2023-04-01T05:45:26;9.45;;;2.33;;
31043;SDS011;17710;52.520;13.352;2023-04-01T05:47:53;8.68;;;2.08;;
31043;SDS011;17710;52.520;13.352;2023-04-01T05:50:20;6.05;;;1.80;;
31043;SDS011;17710;52.520;13.352;2023-04-01T05:52:47;9.95;;;2.72;;
31043;SDS011;17710;52.520;13.352;2023-04-01T05:55:14;6.60;;;2.30;;
31043;SDS011;17710;52.520;13.352;2023-04-01T05:57:40;5.88;;;1.88;;
31043;SDS011;17710;52.520;13.352;2023-04-01T06:00:07;9.32;;;2.30;;
31043;SDS011;17710;52.520;13.352;2023-04-01T06:02:34;7.47;;;2.30;;
31043;SDS011;17710;52.520;13.352;2023-04-01T06:05:03;5.38;;;2.00;;
31043;SDS011;17710;52.520;13.352;2023-04-01T06:07:39;7.65;;;1.75;;
31043;SDS011;17710;52.520;13.352;2023-04-01T06:10:11;10.77;;;2.25;;
31043;SDS011;17710;52.520;13.352;2023-04-01T06:12:45;9.75;;;2.30;;
31043;SDS011;17710;52.520;13.352;2023-04-01T06:15:30;8.68;;;2.00;;
31043;SDS011;17710;52.520;13.352;2023-04-01T06:18:17;5.97;;;2.00;;
31043;SDS011;17710;52.520;13.352;2023-04-01T06:21:04;7.30;;;2.17;;
31043;SDS011;17710;52.520;13.352;2023-04-01T06:23:45;6.90;;;2.20;;
31043;SDS011;17710;52.520;13.352;2023-04-01T06:26:25;8.63;;;2.65;;
31043;SDS011;17710;52.520;13.352;2023-04-01T06:29:03;4.80;;;1.85;;
31043;SDS011;17710;52.520;13.352;2023-04-01T06:31:57;8.35;;;2.05;;
31043;SDS011;17710;52.520;13.352;2023-04-01T06:34:42;7.55;;;2.05;;
31043;SDS011;17710;52.520;13.352;2023-04-01T06:37:34;5.28;;;1.70;;
31043;SDS011;17710;52.520;13.352;2023-04-01T06:40:19;7.32;;;1.75;;
31043;SDS011;17710;52.520;13.352;2023-04-01T06:43:06;8.50;;;1.80;;
31043;SDS011;17710;52.520;13.352;2023-04-01T06:45:41;7.88;;;1.90;;
31043;SDS011;17710;52.520;13.352;2023-04-01T06:48:18;6.47;;;2.00;;
31043;SDS011;17710;52.520;13.352;2023-04-01T06:50:57;7.07;;;2.03;;
31043;SDS011;17710;52.520;13.352;2023-04-01T06:53:35;6.28;;;1.85;;
31043;SDS011;17710;52.520;13.352;2023-04-01T06:56:10;8.10;;;1.73;;
31043;SDS011;17710;52.520;13.352;2023-04-01T06:58:44;7.22;;;2.00;;
31043;SDS011;17710;52.520;13.352;2023-04-01T07:01:15;11.45;;;2.20;;
31043;SDS011;17710;52.520;13.352;2023-04-01T07:03:47;5.75;;;2.00;;
31043;SDS011;17710;52.520;13.352;2023-04-01T07:06:21;6.15;;;1.88;;
31043;SDS011;17710;52.520;13.352;2023-04-01T07:08:53;8.57;;;2.63;;
31043;SDS011;17710;52.520;13.352;2023-04-01T07:11:26;6.53;;;1.90;;
31043;SDS011;17710;52.520;13.352;2023-04-01T07:13:59;5.90;;;1.63;;
31043;SDS011;17710;52.520;13.352;2023-04-01T07:16:29;6.32;;;1.60;;
31043;SDS011;17710;52.520;13.352;2023-04-01T07:19:03;5.65;;;1.63;;
31043;SDS011;17710;52.520;13.352;2023-04-01T07:21:35;5.93;;;1.60;;
31043;SDS011;17710;52.520;13.352;2023-04-01T07:24:09;8.57;;;1.83;;
31043;SDS011;17710;52.520;13.352;2023-04-01T07:26:42;5.38;;;2.00;;
31043;SDS011;17710;52.520;13.352;2023-04-01T07:29:11;7.05;;;2.38;;
31043;SDS011;17710;52.520;13.352;2023-04-01T07:31:45;4.60;;;1.60;;
31043;SDS011;17710;52.520;13.352;2023-04-01T07:34:26;4.50;;;1.90;;
31043;SDS011;17710;52.520;13.352;2023-04-01T07:36:58;4.57;;;1.77;;
31043;SDS011;17710;52.520;13.352;2023-04-01T07:39:34;6.03;;;1.90;;
31043;SDS011;17710;52.520;13.352;2023-04-01T07:42:13;5.82;;;1.73;;
31043;SDS011;17710;52.520;13.352;2023-04-01T07:44:50;4.88;;;1.98;;
31043;SDS011;17710;52.520;13.352;2023-04-01T07:47:29;5.97;;;1.65;;
31043;SDS011;17710;52.520;13.352;2023-04-01T07:50:15;9.57;;;2.03;;
31043;SDS011;17710;52.520;13.352;2023-04-01T07:52:49;7.35;;;2.08;;
31043;SDS011;17710;52.520;13.352;2023-04-01T07:55:28;5.25;;;1.85;;
31043;SDS011;17710;52.520;13.352;2023-04-01T07:58:04;6.78;;;1.75;;
31043;SDS011;17710;52.520;13.352;2023-04-01T08:00:42;8.90;;;1.65;;
31043;SDS011;17710;52.520;13.352;2023-04-01T08:03:20;9.18;;;2.20;;
31043;SDS011;17710;52.520;13.352;2023-04-01T08:05:58;11.85;;;2.83;;
31043;SDS011;17710;52.520;13.352;2023-04-01T08:08:34;8.40;;;3.22;;
31043;SDS011;17710;52.520;13.352;2023-04-01T08:11:12;8.60;;;2.97;;
31043;SDS011;17710;52.520;13.352;2023-04-01T08:13:50;7.32;;;3.40;;
31043;SDS011;17710;52.520;13.352;2023-04-01T08:16:30;7.72;;;2.70;;
31043;SDS011;17710;52.520;13.352;2023-04-01T08:19:04;3.50;;;1.95;;
31043;SDS011;17710;52.520;13.352;2023-04-01T08:21:41;3.63;;;1.88;;
31043;SDS011;17710;52.520;13.352;2023-04-01T08:24:11;4.00;;;1.73;;
31043;SDS011;17710;52.520;13.352;2023-04-01T08:26:49;2.45;;;1.20;;
31043;SDS011;17710;52.520;13.352;2023-04-01T08:29:21;3.05;;;1.48;;
31043;SDS011;17710;52.520;13.352;2023-04-01T08:31:54;2.15;;;1.33;;
31043;SDS011;17710;52.520;13.352;2023-04-01T08:34:25;1.58;;;1.05;;
31043;SDS011;17710;52.520;13.352;2023-04-01T08:36:58;1.40;;;1.30;;
31043;SDS011;17710;52.520;13.352;2023-04-01T08:39:29;1.98;;;1.10;;
31043;SDS011;17710;52.520;13.352;2023-04-01T08:45:09;1.98;;;1.70;;
31043;SDS011;17710;52.520;13.352;2023-04-01T08:47:46;1.55;;;1.45;;
31043;SDS011;17710;52.520;13.352;2023-04-01T08:50:54;2.83;;;2.50;;
31043;SDS011;17710;52.520;13.352;2023-04-01T08:53:44;3.20;;;2.80;;
31043;SDS011;17710;52.520;13.352;2023-04-01T08:56:33;4.07;;;3.28;;
31043;SDS011;17710;52.520;13.352;2023-04-01T09:02:10;3.95;;;3.28;;
31043;SDS011;17710;52.520;13.352;2023-04-01T09:05:02;9.23;;;5.20;;
31043;SDS011;17710;52.520;13.352;2023-04-01T09:07:49;6.57;;;5.20;;
31043;SDS011;17710;52.520;13.352;2023-04-01T09:10:34;6.97;;;5.55;;
31043;SDS011;17710;52.520;13.352;2023-04-01T09:13:16;8.75;;;6.00;;
31043;SDS011;17710;52.520;13.352;2023-04-01T09:16:04;9.73;;;6.35;;
31043;SDS011;17710;52.520;13.352;2023-04-01T09:18:42;7.70;;;6.57;;
31043;SDS011;17710;52.520;13.352;2023-04-01T09:36:33;9.80;;;7.13;;
31043;SDS011;17710;52.520;13.352;2023-04-01T09:39:12;10.80;;;7.88;;
31043;SDS011;17710;52.520;13.352;2023-04-01T09:41:53;10.82;;;8.13;;
31043;SDS011;17710;52.520;13.352;2023-04-01T09:44:34;11.80;;;8.23;;
31043;SDS011;17710;52.520;13.352;2023-04-01T09:47:06;10.05;;;8.32;;
31043;SDS011;17710;52.520;13.352;2023-04-01T09:49:46;10.82;;;8.43;;
31043;SDS011;17710;52.520;13.352;2023-04-01T09:52:27;11.48;;;8.20;;
31043;SDS011;17710;52.520;13.352;2023-04-01T09:55:13;9.32;;;8.25;;
31043;SDS011;17710;52.520;13.352;2023-04-01T09:58:12;9.23;;;7.50;;
31043;SDS011;17710;52.520;13.352;2023-04-01T10:01:24;10.32;;;8.50;;
31043;SDS011;17710;52.520;13.352;2023-04-01T10:04:17;8.48;;;7.57;;
31043;SDS011;17710;52.520;13.352;2023-04-01T10:07:06;10.57;;;8.63;;
31043;SDS011;17710;52.520;13.352;2023-04-01T10:10:03;9.63;;;8.63;;
31043;SDS011;17710;52.520;13.352;2023-04-01T10:12:57;9.07;;;8.13;;
31043;SDS011;17710;52.520;13.352;2023-04-01T10:18:46;10.50;;;7.30;;
31043;SDS011;17710;52.520;13.352;2023-04-01T10:24:47;8.43;;;7.53;;
31043;SDS011;17710;52.520;13.352;2023-04-01T10:27:43;8.43;;;6.57;;
31043;SDS011;17710;52.520;13.352;2023-04-01T10:30:40;8.98;;;6.70;;
31043;SDS011;17710;52.520;13.352;2023-04-01T10:36:41;7.73;;;6.97;;
31043;SDS011;17710;52.520;13.352;2023-04-01T10:39:26;7.60;;;6.90;;
31043;SDS011;17710;52.520;13.352;2023-04-01T10:42:20;8.05;;;7.25;;
31043;SDS011;17710;52.520;13.352;2023-04-01T10:45:15;9.90;;;7.68;;
31043;SDS011;17710;52.520;13.352;2023-04-01T10:48:07;9.73;;;8.05;;
31043;SDS011;17710;52.520;13.352;2023-04-01T10:57:01;10.18;;;8.60;;
31043;SDS011;17710;52.520;13.352;2023-04-01T10:59:45;12.85;;;8.63;;
31043;SDS011;17710;52.520;13.352;2023-04-01T11:05:49;9.18;;;8.27;;
31043;SDS011;17710;52.520;13.352;2023-04-01T11:08:38;9.52;;;8.57;;
31043;SDS011;17710;52.520;13.352;2023-04-01T11:17:36;10.23;;;9.23;;
31043;SDS011;17710;52.520;13.352;2023-04-01T11:20:31;9.65;;;8.68;;
31043;SDS011;17710;52.520;13.352;2023-04-01T11:23:20;10.45;;;9.45;;
31043;SDS011;17710;52.520;13.352;2023-04-01T11:26:00;9.15;;;8.25;;
31043;SDS011;17710;52.520;13.352;2023-04-01T11:28:36;8.85;;;7.75;;
31043;SDS011;17710;52.520;13.352;2023-04-01T11:31:39;9.98;;;8.98;;
31043;SDS011;17710;52.520;13.352;2023-04-01T11:34:22;9.73;;;7.97;;
31043;SDS011;17710;52.520;13.352;2023-04-01T11:37:09;9.25;;;8.35;;
31043;SDS011;17710;52.520;13.352;2023-04-01T11:39:51;9.82;;;8.93;;
31043;SDS011;17710;52.520;13.352;2023-04-01T11:42:28;8.52;;;7.63;;
31043;SDS011;17710;52.520;13.352;2023-04-01T11:45:10;9.10;;;8.20;;
31043;SDS011;17710;52.520;13.352;2023-04-01T11:47:48;8.60;;;7.68;;
31043;SDS011;17710;52.520;13.352;2023-04-01T11:50:28;9.15;;;8.25;;
31043;SDS011;17710;52.520;13.352;2023-04-01T11:53:06;9.63;;;8.73;;
31043;SDS011;17710;52.520;13.352;2023-04-01T11:56:00;10.35;;;8.43;;
31043;SDS011;17710;52.520;13.352;2023-04-01T11:58:37;10.18;;;9.13;;
31043;SDS011;17710;52.520;13.352;2023-04-01T12:01:30;9.00;;;8.10;;
31043;SDS011;17710;52.520;13.352;2023-04-01T12:04:24;8.27;;;7.47;;
31043;SDS011;17710;52.520;13.352;2023-04-01T12:07:15;8.45;;;7.55;;
31043;SDS011;17710;52.520;13.352;2023-04-01T12:09:49;9.48;;;8.48;;
31043;SDS011;17710;52.520;13.352;2023-04-01T12:12:25;10.85;;;8.80;;
31043;SDS011;17710;52.520;13.352;2023-04-01T12:15:04;12.50;;;9.63;;
31043;SDS011;17710;52.520;13.352;2023-04-01T12:17:46;10.07;;;8.75;;
31043;SDS011;17710;52.520;13.352;2023-04-01T12:20:24;9.65;;;8.75;;
31043;SDS011;17710;52.520;13.352;2023-04-01T12:23:03;8.05;;;7.25;;
31043;SDS011;17710;52.520;13.352;2023-04-01T12:25:52;8.82;;;7.93;;
31043;SDS011;17710;52.520;13.352;2023-04-01T12:28:32;9.00;;;8.07;;
31043;SDS011;17710;52.520;13.352;2023-04-01T12:31:14;8.02;;;7.22;;
31043;SDS011;17710;52.520;13.352;2023-04-01T12:33:56;7.38;;;6.43;;
31043;SDS011;17710;52.520;13.352;2023-04-01T12:36:39;8.32;;;7.53;;
31043;SDS011;17710;52.520;13.352;2023-04-01T12:39:26;9.90;;;7.82;;
31043;SDS011;17710;52.520;13.352;2023-04-01T12:42:06;9.00;;;8.13;;
31043;SDS011;17710;52.520;13.352;2023-04-01T12:44:43;9.50;;;8.32;;
31043;SDS011;17710;52.520;13.352;2023-04-01T12:47:32;11.13;;;8.68;;
31043;SDS011;17710;52.520;13.352;2023-04-01T12:50:25;9.10;;;8.30;;
31043;SDS011;17710;52.520;13.352;2023-04-01T12:53:07;10.30;;;9.20;;
31043;SDS011;17710;52.520;13.352;2023-04-01T12:55:45;10.30;;;9.30;;
31043;SDS011;17710;52.520;13.352;2023-04-01T12:58:20;9.93;;;9.00;;
31043;SDS011;17710;52.520;13.352;2023-04-01T13:04:34;12.32;;;10.07;;
31043;SDS011;17710;52.520;13.352;2023-04-01T13:07:22;11.63;;;9.95;;
31043;SDS011;17710;52.520;13.352;2023-04-01T13:09:58;10.32;;;9.23;;
31043;SDS011;17710;52.520;13.352;2023-04-01T13:12:50;10.57;;;9.47;;
31043;SDS011;17710;52.520;13.352;2023-04-01T13:15:37;12.93;;;11.43;;
31043;SDS011;17710;52.520;13.352;2023-04-01T13:18:14;11.25;;;9.70;;
31043;SDS011;17710;52.520;13.352;2023-04-01T13:20:49;12.60;;;9.23;;
31043;SDS011;17710;52.520;13.352;2023-04-01T13:23:27;11.60;;;9.88;;
31043;SDS011;17710;52.520;13.352;2023-04-01T13:26:02;9.68;;;8.68;;
31043;SDS011;17710;52.520;13.352;2023-04-01T13:28:36;13.20;;;9.80;;
31043;SDS011;17710;52.520;13.352;2023-04-01T13:31:07;13.68;;;9.52;;
31043;SDS011;17710;52.520;13.352;2023-04-01T13:33:44;10.25;;;9.23;;
31043;SDS011;17710;52.520;13.352;2023-04-01T13:36:18;11.50;;;9.32;;
31043;SDS011;17710;52.520;13.352;2023-04-01T13:38:59;12.15;;;8.88;;
31043;SDS011;17710;52.520;13.352;2023-04-01T13:41:39;10.05;;;9.05;;
31043;SDS011;17710;52.520;13.352;2023-04-01T13:44:17;10.07;;;8.93;;
31043;SDS011;17710;52.520;13.352;2023-04-01T13:47:01;9.02;;;8.15;;
31043;SDS011;17710;52.520;13.352;2023-04-01T13:49:39;11.93;;;8.20;;
31043;SDS011;17710;52.520;13.352;2023-04-01T13:52:24;11.02;;;9.27;;
31043;SDS011;17710;52.520;13.352;2023-04-01T13:55:15;8.57;;;7.68;;
31043;SDS011;17710;52.520;13.352;2023-04-01T13:58:16;7.93;;;7.22;;
31043;SDS011;17710;52.520;13.352;2023-04-01T14:01:00;7.80;;;7.10;;
31043;SDS011;17710;52.520;13.352;2023-04-01T14:06:33;7.22;;;6.38;;
31043;SDS011;17710;52.520;13.352;2023-04-01T14:09:21;6.82;;;6.13;;
31043;SDS011;17710;52.520;13.352;2023-04-01T14:12:02;7.43;;;5.82;;
31043;SDS011;17710;52.520;13.352;2023-04-01T14:14:43;6.15;;;5.55;;
31043;SDS011;17710;52.520;13.352;2023-04-01T14:17:23;6.65;;;5.68;;
31043;SDS011;17710;52.520;13.352;2023-04-01T14:20:04;6.72;;;5.65;;
31043;SDS011;17710;52.520;13.352;2023-04-01T14:22:55;6.20;;;5.55;;
31043;SDS011;17710;52.520;13.352;2023-04-01T14:25:46;6.00;;;5.40;;
31043;SDS011;17710;52.520;13.352;2023-04-01T14:28:28;4.47;;;4.00;;
31043;SDS011;17710;52.520;13.352;2023-04-01T14:31:10;5.93;;;4.43;;
31043;SDS011;17710;52.520;13.352;2023-04-01T14:33:55;7.05;;;4.38;;
31043;SDS011;17710;52.520;13.352;2023-04-01T14:36:33;5.38;;;4.10;;
31043;SDS011;17710;52.520;13.352;2023-04-01T14:39:13;5.72;;;4.18;;
31043;SDS011;17710;52.520;13.352;2023-04-01T14:41:48;5.45;;;4.05;;
31043;SDS011;17710;52.520;13.352;2023-04-01T14:44:38;6.85;;;4.95;;
31043;SDS011;17710;52.520;13.352;2023-04-01T14:47:25;4.57;;;3.67;;
31043;SDS011;17710;52.520;13.352;2023-04-01T14:50:05;3.97;;;3.60;;
31043;SDS011;17710;52.520;13.352;2023-04-01T14:52:36;8.60;;;4.47;;
31043;SDS011;17710;52.520;13.352;2023-04-01T14:55:16;5.68;;;4.20;;
31043;SDS011;17710;52.520;13.352;2023-04-01T14:58:00;5.25;;;4.43;;
31043;SDS011;17710;52.520;13.352;2023-04-01T15:00:40;8.07;;;4.38;;
31043;SDS011;17710;52.520;13.352;2023-04-01T15:03:14;7.78;;;5.63;;
31043;SDS011;17710;52.520;13.352;2023-04-01T15:05:45;6.75;;;4.70;;
31043;SDS011;17710;52.520;13.352;2023-04-01T15:08:17;5.50;;;4.50;;
31043;SDS011;17710;52.520;13.352;2023-04-01T15:13:48;4.30;;;3.90;;
31043;SDS011;17710;52.520;13.352;2023-04-01T15:16:36;6.13;;;4.90;;
31043;SDS011;17710;52.520;13.352;2023-04-01T15:19:15;4.75;;;3.28;;
31043;SDS011;17710;52.520;13.352;2023-04-01T15:21:59;4.28;;;3.22;;
31043;SDS011;17710;52.520;13.352;2023-04-01T15:24:41;4.85;;;4.05;;
31043;SDS011;17710;52.520;13.352;2023-04-01T15:27:15;6.28;;;4.47;;
31043;SDS011;17710;52.520;13.352;2023-04-01T15:30:04;6.03;;;4.78;;
31043;SDS011;17710;52.520;13.352;2023-04-01T15:32:46;27.45;;;12.85;;
31043;SDS011;17710;52.520;13.352;2023-04-01T15:35:26;13.55;;;6.82;;
31043;SDS011;17710;52.520;13.352;2023-04-01T15:38:05;7.32;;;5.28;;
31043;SDS011;17710;52.520;13.352;2023-04-01T15:40:38;4.90;;;4.03;;
31043;SDS011;17710;52.520;13.352;2023-04-01T15:43:15;6.10;;;5.10;;
31043;SDS011;17710;52.520;13.352;2023-04-01T15:45:58;6.50;;;5.00;;
31043;SDS011;17710;52.520;13.352;2023-04-01T15:48:44;5.80;;;4.82;;
31043;SDS011;17710;52.520;13.352;2023-04-01T15:51:26;6.70;;;4.97;;
31043;SDS011;17710;52.520;13.352;2023-04-01T15:57:16;5.80;;;5.22;;
31043;SDS011;17710;52.520;13.352;2023-04-01T15:59:58;7.22;;;5.43;;
31043;SDS011;17710;52.520;13.352;2023-04-01T16:02:38;6.82;;;5.85;;
31043;SDS011;17710;52.520;13.352;2023-04-01T16:05:20;8.23;;;6.00;;
31043;SDS011;17710;52.520;13.352;2023-04-01T16:08:02;5.80;;;5.20;;
31043;SDS011;17710;52.520;13.352;2023-04-01T16:10:38;6.60;;;4.68;;
31043;SDS011;17710;52.520;13.352;2023-04-01T16:13:24;6.93;;;4.82;;
31043;SDS011;17710;52.520;13.352;2023-04-01T16:16:05;7.13;;;4.70;;
31043;SDS011;17710;52.520;13.352;2023-04-01T16:18:45;4.55;;;3.85;;
31043;SDS011;17710;52.520;13.352;2023-04-01T16:21:24;6.28;;;4.05;;
31043;SDS011;17710;52.520;13.352;2023-04-01T16:24:02;4.95;;;4.03;;
31043;SDS011;17710;52.520;13.352;2023-04-01T16:26:43;5.35;;;4.00;;